sensor_id;sensor_type;location;lat;lon;timestamp;P1;durP1;ratioP1;P2;durP2;ratioP2
56788;SDS011;42657;51.650;17.780;2022-11-15T00:01:16;99.60;;;48.00;;
56788;SDS011;42657;51.650;17.780;2022-11-15T00:04:19;109.10;;;45.70;;
56788;SDS011;42657;51.650;17.780;2022-11-15T00:07:20;100.60;;;44.60;;
56788;SDS011;42657;51.650;17.780;2022-11-15T00:10:22;102.30;;;44.70;;
56788;SDS011;42657;51.650;17.780;2022-11-15T00:13:23;97.40;;;45.10;;
56788;SDS011;42657;51.650;17.780;2022-11-15T00:16:25;98.60;;;43.00;;
56788;SDS011;42657;51.650;17.780;2022-11-15T00:19:27;124.00;;;54.40;;
56788;SDS011;42657;51.650;17.780;2022-11-15T00:22:32;141.80;;;56.60;;
56788;SDS011;42657;51.650;17.780;2022-11-15T00:25:34;151.50;;;60.30;;
56788;SDS011;42657;51.650;17.780;2022-11-15T00:28:36;118.50;;;50.40;;
56788;SDS011;42657;51.650;17.780;2022-11-15T00:31:37;135.10;;;56.40;;
56788;SDS011;42657;51.650;17.780;2022-11-15T00:34:39;157.40;;;68.70;;
56788;SDS011;42657;51.650;17.780;2022-11-15T00:37:40;159.70;;;70.20;;
56788;SDS011;42657;51.650;17.780;2022-11-15T00:40:42;159.00;;;67.80;;
56788;SDS011;42657;51.650;17.780;2022-11-15T00:43:43;125.40;;;53.80;;
56788;SDS011;42657;51.650;17.780;2022-11-15T00:46:45;128.00;;;52.90;;
56788;SDS011;42657;51.650;17.780;2022-11-15T00:49:46;141.10;;;53.70;;
56788;SDS011;42657;51.650;17.780;2022-11-15T00:56:27;170.70;;;63.60;;
56788;SDS011;42657;51.650;17.780;2022-11-15T00:59:28;172.10;;;64.50;;
56788;SDS011;42657;51.650;17.780;2022-11-15T01:02:30;167.40;;;64.20;;
56788;SDS011;42657;51.650;17.780;2022-11-15T01:05:31;166.50;;;62.20;;
56788;SDS011;42657;51.650;17.780;2022-11-15T01:08:33;157.60;;;62.10;;
56788;SDS011;42657;51.650;17.780;2022-11-15T01:11:35;156.50;;;63.10;;
56788;SDS011;42657;51.650;17.780;2022-11-15T01:14:37;159.20;;;63.20;;
56788;SDS011;42657;51.650;17.780;2022-11-15T01:17:38;168.90;;;63.90;;
56788;SDS011;42657;51.650;17.780;2022-11-15T01:20:40;159.50;;;59.90;;
56788;SDS011;42657;51.650;17.780;2022-11-15T01:23:42;159.90;;;55.70;;
56788;SDS011;42657;51.650;17.780;2022-11-15T01:26:44;144.80;;;54.60;;
56788;SDS011;42657;51.650;17.780;2022-11-15T01:29:45;163.20;;;58.90;;
56788;SDS011;42657;51.650;17.780;2022-11-15T01:32:47;154.60;;;60.00;;
56788;SDS011;42657;51.650;17.780;2022-11-15T01:35:48;111.00;;;48.00;;
56788;SDS011;42657;51.650;17.780;2022-11-15T01:38:53;105.40;;;43.20;;
56788;SDS011;42657;51.650;17.780;2022-11-15T01:41:56;97.00;;;45.10;;
56788;SDS011;42657;51.650;17.780;2022-11-15T01:44:58;107.70;;;47.10;;
56788;SDS011;42657;51.650;17.780;2022-11-15T01:48:00;105.50;;;44.80;;
56788;SDS011;42657;51.650;17.780;2022-11-15T01:51:02;102.40;;;44.60;;
56788;SDS011;42657;51.650;17.780;2022-11-15T01:54:11;103.10;;;43.60;;
56788;SDS011;42657;51.650;17.780;2022-11-15T01:57:16;107.60;;;46.40;;
56788;SDS011;42657;51.650;17.780;2022-11-15T02:00:18;105.50;;;46.00;;
56788;SDS011;42657;51.650;17.780;2022-11-15T02:03:20;103.20;;;43.00;;
56788;SDS011;42657;51.650;17.780;2022-11-15T02:06:27;94.20;;;39.50;;
56788;SDS011;42657;51.650;17.780;2022-11-15T02:09:29;121.00;;;46.70;;
56788;SDS011;42657;51.650;17.780;2022-11-15T02:12:31;99.10;;;41.10;;
56788;SDS011;42657;51.650;17.780;2022-11-15T02:15:35;108.90;;;43.90;;
56788;SDS011;42657;51.650;17.780;2022-11-15T02:43:53;140.60;;;58.20;;
56788;SDS011;42657;51.650;17.780;2022-11-15T02:47:06;126.50;;;58.10;;
56788;SDS011;42657;51.650;17.780;2022-11-15T02:50:13;112.50;;;47.60;;
56788;SDS011;42657;51.650;17.780;2022-11-15T02:53:20;114.20;;;49.30;;
56788;SDS011;42657;51.650;17.780;2022-11-15T02:56:25;122.30;;;50.70;;
56788;SDS011;42657;51.650;17.780;2022-11-15T03:12:57;131.70;;;54.30;;
56788;SDS011;42657;51.650;17.780;2022-11-15T03:16:18;141.10;;;58.50;;
56788;SDS011;42657;51.650;17.780;2022-11-15T03:19:40;157.90;;;68.80;;
56788;SDS011;42657;51.650;17.780;2022-11-15T03:25:50;132.10;;;58.10;;
56788;SDS011;42657;51.650;17.780;2022-11-15T03:28:58;127.40;;;51.50;;
56788;SDS011;42657;51.650;17.780;2022-11-15T03:32:26;89.40;;;42.40;;
56788;SDS011;42657;51.650;17.780;2022-11-15T03:35:38;88.70;;;42.10;;
56788;SDS011;42657;51.650;17.780;2022-11-15T03:38:44;95.00;;;44.70;;
56788;SDS011;42657;51.650;17.780;2022-11-15T03:48:24;94.00;;;45.70;;
56788;SDS011;42657;51.650;17.780;2022-11-15T03:51:29;84.70;;;41.40;;
56788;SDS011;42657;51.650;17.780;2022-11-15T03:54:31;87.30;;;39.00;;
56788;SDS011;42657;51.650;17.780;2022-11-15T03:57:32;85.90;;;38.30;;
56788;SDS011;42657;51.650;17.780;2022-11-15T04:00:34;101.80;;;45.90;;
56788;SDS011;42657;51.650;17.780;2022-11-15T04:03:35;84.10;;;41.20;;
56788;SDS011;42657;51.650;17.780;2022-11-15T04:06:37;97.20;;;43.20;;
56788;SDS011;42657;51.650;17.780;2022-11-15T04:09:38;79.10;;;37.50;;
56788;SDS011;42657;51.650;17.780;2022-11-15T04:12:41;68.30;;;32.30;;
56788;SDS011;42657;51.650;17.780;2022-11-15T04:15:44;80.80;;;36.20;;
56788;SDS011;42657;51.650;17.780;2022-11-15T04:18:46;100.30;;;45.30;;
56788;SDS011;42657;51.650;17.780;2022-11-15T04:21:47;92.20;;;43.90;;
56788;SDS011;42657;51.650;17.780;2022-11-15T04:24:49;93.30;;;45.90;;
56788;SDS011;42657;51.650;17.780;2022-11-15T04:27:50;83.10;;;37.80;;
56788;SDS011;42657;51.650;17.780;2022-11-15T04:30:52;82.70;;;34.10;;
56788;SDS011;42657;51.650;17.780;2022-11-15T04:33:54;68.50;;;32.10;;
56788;SDS011;42657;51.650;17.780;2022-11-15T04:36:55;94.90;;;41.90;;
56788;SDS011;42657;51.650;17.780;2022-11-15T04:39:57;95.60;;;41.30;;
56788;SDS011;42657;51.650;17.780;2022-11-15T04:42:58;84.00;;;40.20;;
56788;SDS011;42657;51.650;17.780;2022-11-15T04:46:00;89.20;;;40.20;;
56788;SDS011;42657;51.650;17.780;2022-11-15T04:49:01;76.50;;;34.30;;
56788;SDS011;42657;51.650;17.780;2022-11-15T04:52:03;75.90;;;35.20;;
56788;SDS011;42657;51.650;17.780;2022-11-15T04:55:05;95.30;;;38.50;;
56788;SDS011;42657;51.650;17.780;2022-11-15T04:58:06;92.40;;;41.30;;
56788;SDS011;42657;51.650;17.780;2022-11-15T05:01:11;92.30;;;41.60;;
56788;SDS011;42657;51.650;17.780;2022-11-15T05:04:13;98.80;;;41.90;;
56788;SDS011;42657;51.650;17.780;2022-11-15T05:07:15;122.80;;;47.10;;
56788;SDS011;42657;51.650;17.780;2022-11-15T05:10:16;159.30;;;56.50;;
56788;SDS011;42657;51.650;17.780;2022-11-15T05:13:17;154.40;;;63.10;;
56788;SDS011;42657;51.650;17.780;2022-11-15T05:16:19;162.90;;;57.50;;
56788;SDS011;42657;51.650;17.780;2022-11-15T05:19:20;110.50;;;45.10;;
56788;SDS011;42657;51.650;17.780;2022-11-15T05:22:22;101.70;;;43.10;;
56788;SDS011;42657;51.650;17.780;2022-11-15T05:25:24;91.30;;;42.20;;
56788;SDS011;42657;51.650;17.780;2022-11-15T05:28:26;93.10;;;40.20;;
56788;SDS011;42657;51.650;17.780;2022-11-15T05:31:27;65.90;;;33.70;;
56788;SDS011;42657;51.650;17.780;2022-11-15T05:34:29;65.70;;;32.60;;
56788;SDS011;42657;51.650;17.780;2022-11-15T05:37:30;68.90;;;32.30;;
56788;SDS011;42657;51.650;17.780;2022-11-15T05:40:32;64.30;;;30.90;;
56788;SDS011;42657;51.650;17.780;2022-11-15T05:43:35;92.90;;;41.60;;
56788;SDS011;42657;51.650;17.780;2022-11-15T05:46:40;72.00;;;33.80;;
56788;SDS011;42657;51.650;17.780;2022-11-15T05:49:42;58.00;;;29.60;;
56788;SDS011;42657;51.650;17.780;2022-11-15T05:52:46;56.10;;;26.80;;
56788;SDS011;42657;51.650;17.780;2022-11-15T05:55:48;54.50;;;27.80;;
56788;SDS011;42657;51.650;17.780;2022-11-15T05:58:51;76.70;;;33.80;;
56788;SDS011;42657;51.650;17.780;2022-11-15T06:01:54;107.60;;;47.10;;
56788;SDS011;42657;51.650;17.780;2022-11-15T06:04:55;129.20;;;54.20;;
56788;SDS011;42657;51.650;17.780;2022-11-15T06:07:57;132.10;;;53.30;;
56788;SDS011;42657;51.650;17.780;2022-11-15T06:11:04;95.20;;;40.60;;
56788;SDS011;42657;51.650;17.780;2022-11-15T06:14:06;87.60;;;37.00;;
56788;SDS011;42657;51.650;17.780;2022-11-15T06:17:08;73.10;;;35.50;;
56788;SDS011;42657;51.650;17.780;2022-11-15T06:20:09;86.60;;;38.10;;
56788;SDS011;42657;51.650;17.780;2022-11-15T06:23:11;90.70;;;46.20;;
56788;SDS011;42657;51.650;17.780;2022-11-15T06:26:13;105.70;;;46.40;;
56788;SDS011;42657;51.650;17.780;2022-11-15T06:29:14;86.40;;;39.20;;
56788;SDS011;42657;51.650;17.780;2022-11-15T06:32:15;87.70;;;39.70;;
56788;SDS011;42657;51.650;17.780;2022-11-15T06:35:17;78.80;;;34.40;;
56788;SDS011;42657;51.650;17.780;2022-11-15T06:38:18;85.30;;;36.30;;
56788;SDS011;42657;51.650;17.780;2022-11-15T06:41:20;97.80;;;39.40;;
56788;SDS011;42657;51.650;17.780;2022-11-15T06:44:22;88.30;;;39.90;;
56788;SDS011;42657;51.650;17.780;2022-11-15T06:47:23;93.60;;;39.90;;
56788;SDS011;42657;51.650;17.780;2022-11-15T06:50:24;96.40;;;39.60;;
56788;SDS011;42657;51.650;17.780;2022-11-15T06:53:26;97.70;;;42.60;;
56788;SDS011;42657;51.650;17.780;2022-11-15T06:56:28;97.10;;;42.80;;
56788;SDS011;42657;51.650;17.780;2022-11-15T06:59:30;110.50;;;43.80;;
56788;SDS011;42657;51.650;17.780;2022-11-15T07:02:32;169.20;;;60.40;;
56788;SDS011;42657;51.650;17.780;2022-11-15T07:05:33;220.80;;;82.50;;
56788;SDS011;42657;51.650;17.780;2022-11-15T07:08:35;166.00;;;64.10;;
56788;SDS011;42657;51.650;17.780;2022-11-15T07:11:37;106.10;;;45.90;;
56788;SDS011;42657;51.650;17.780;2022-11-15T07:14:39;98.60;;;43.70;;
56788;SDS011;42657;51.650;17.780;2022-11-15T07:17:40;108.30;;;49.20;;
56788;SDS011;42657;51.650;17.780;2022-11-15T07:20:42;111.90;;;46.10;;
56788;SDS011;42657;51.650;17.780;2022-11-15T07:23:43;122.80;;;52.90;;
56788;SDS011;42657;51.650;17.780;2022-11-15T07:26:45;132.10;;;55.50;;
56788;SDS011;42657;51.650;17.780;2022-11-15T07:29:46;142.20;;;62.20;;
56788;SDS011;42657;51.650;17.780;2022-11-15T07:32:51;126.80;;;54.50;;
56788;SDS011;42657;51.650;17.780;2022-11-15T07:36:00;134.00;;;56.20;;
56788;SDS011;42657;51.650;17.780;2022-11-15T07:39:02;103.10;;;45.20;;
56788;SDS011;42657;51.650;17.780;2022-11-15T07:42:04;110.90;;;47.90;;
56788;SDS011;42657;51.650;17.780;2022-11-15T07:45:05;105.90;;;46.50;;
56788;SDS011;42657;51.650;17.780;2022-11-15T07:48:07;105.50;;;46.70;;
56788;SDS011;42657;51.650;17.780;2022-11-15T07:51:12;101.90;;;44.10;;
56788;SDS011;42657;51.650;17.780;2022-11-15T07:54:14;82.20;;;38.40;;
56788;SDS011;42657;51.650;17.780;2022-11-15T07:57:16;86.30;;;40.90;;
56788;SDS011;42657;51.650;17.780;2022-11-15T08:00:17;125.90;;;52.90;;
56788;SDS011;42657;51.650;17.780;2022-11-15T08:03:20;100.90;;;50.00;;
56788;SDS011;42657;51.650;17.780;2022-11-15T08:06:21;104.10;;;53.00;;
56788;SDS011;42657;51.650;17.780;2022-11-15T08:09:22;104.10;;;46.40;;
56788;SDS011;42657;51.650;17.780;2022-11-15T08:12:24;100.60;;;51.20;;
56788;SDS011;42657;51.650;17.780;2022-11-15T08:15:26;113.80;;;60.80;;
56788;SDS011;42657;51.650;17.780;2022-11-15T08:18:28;154.50;;;78.00;;
56788;SDS011;42657;51.650;17.780;2022-11-15T08:21:29;144.40;;;68.90;;
56788;SDS011;42657;51.650;17.780;2022-11-15T08:24:31;124.00;;;56.40;;
56788;SDS011;42657;51.650;17.780;2022-11-15T08:27:33;106.20;;;47.20;;
56788;SDS011;42657;51.650;17.780;2022-11-15T08:30:35;101.10;;;48.70;;
56788;SDS011;42657;51.650;17.780;2022-11-15T08:33:41;123.90;;;54.90;;
56788;SDS011;42657;51.650;17.780;2022-11-15T08:36:42;162.90;;;70.20;;
56788;SDS011;42657;51.650;17.780;2022-11-15T08:39:43;152.70;;;66.30;;
56788;SDS011;42657;51.650;17.780;2022-11-15T08:42:48;154.00;;;70.90;;
56788;SDS011;42657;51.650;17.780;2022-11-15T08:45:49;143.50;;;71.40;;
56788;SDS011;42657;51.650;17.780;2022-11-15T08:48:51;132.90;;;62.90;;
56788;SDS011;42657;51.650;17.780;2022-11-15T08:51:52;129.70;;;60.70;;
56788;SDS011;42657;51.650;17.780;2022-11-15T08:54:53;90.50;;;47.00;;
56788;SDS011;42657;51.650;17.780;2022-11-15T08:57:56;85.30;;;42.80;;
56788;SDS011;42657;51.650;17.780;2022-11-15T09:00:58;86.10;;;41.10;;
56788;SDS011;42657;51.650;17.780;2022-11-15T09:04:00;86.50;;;41.60;;
56788;SDS011;42657;51.650;17.780;2022-11-15T09:07:01;88.10;;;42.30;;
56788;SDS011;42657;51.650;17.780;2022-11-15T09:10:03;89.00;;;43.60;;
56788;SDS011;42657;51.650;17.780;2022-11-15T09:13:05;85.80;;;40.70;;
56788;SDS011;42657;51.650;17.780;2022-11-15T09:16:06;68.90;;;34.90;;
56788;SDS011;42657;51.650;17.780;2022-11-15T09:19:08;65.00;;;32.00;;
56788;SDS011;42657;51.650;17.780;2022-11-15T09:22:09;63.50;;;31.60;;
56788;SDS011;42657;51.650;17.780;2022-11-15T09:25:11;68.20;;;30.10;;
56788;SDS011;42657;51.650;17.780;2022-11-15T09:28:12;69.30;;;31.90;;
56788;SDS011;42657;51.650;17.780;2022-11-15T09:31:14;56.80;;;28.60;;
56788;SDS011;42657;51.650;17.780;2022-11-15T09:34:15;54.90;;;28.10;;
56788;SDS011;42657;51.650;17.780;2022-11-15T09:37:17;55.00;;;28.40;;
56788;SDS011;42657;51.650;17.780;2022-11-15T09:40:18;54.10;;;29.00;;
56788;SDS011;42657;51.650;17.780;2022-11-15T09:43:25;52.50;;;28.00;;
56788;SDS011;42657;51.650;17.780;2022-11-15T09:46:46;53.80;;;29.60;;
56788;SDS011;42657;51.650;17.780;2022-11-15T09:49:56;60.40;;;29.40;;
56788;SDS011;42657;51.650;17.780;2022-11-15T09:53:00;56.70;;;30.30;;
56788;SDS011;42657;51.650;17.780;2022-11-15T09:56:02;61.10;;;29.60;;
56788;SDS011;42657;51.650;17.780;2022-11-15T09:59:29;59.00;;;28.60;;
56788;SDS011;42657;51.650;17.780;2022-11-15T10:06:10;58.70;;;29.30;;
56788;SDS011;42657;51.650;17.780;2022-11-15T10:09:24;59.20;;;28.80;;
56788;SDS011;42657;51.650;17.780;2022-11-15T10:12:30;50.20;;;25.00;;
56788;SDS011;42657;51.650;17.780;2022-11-15T10:15:32;46.00;;;25.90;;
56788;SDS011;42657;51.650;17.780;2022-11-15T10:18:35;53.30;;;25.20;;
56788;SDS011;42657;51.650;17.780;2022-11-15T10:25:29;44.30;;;24.90;;
56788;SDS011;42657;51.650;17.780;2022-11-15T10:28:32;46.30;;;23.20;;
56788;SDS011;42657;51.650;17.780;2022-11-15T10:31:34;42.00;;;23.10;;
56788;SDS011;42657;51.650;17.780;2022-11-15T10:34:35;42.70;;;23.70;;
56788;SDS011;42657;51.650;17.780;2022-11-15T10:37:37;43.00;;;23.50;;
56788;SDS011;42657;51.650;17.780;2022-11-15T10:40:39;48.00;;;25.50;;
56788;SDS011;42657;51.650;17.780;2022-11-15T10:43:42;44.20;;;23.70;;
56788;SDS011;42657;51.650;17.780;2022-11-15T10:49:59;55.80;;;22.60;;
56788;SDS011;42657;51.650;17.780;2022-11-15T10:53:00;46.40;;;24.10;;
56788;SDS011;42657;51.650;17.780;2022-11-15T10:56:03;41.20;;;22.00;;
56788;SDS011;42657;51.650;17.780;2022-11-15T10:59:14;44.30;;;23.70;;
56788;SDS011;42657;51.650;17.780;2022-11-15T11:02:30;42.40;;;23.20;;
56788;SDS011;42657;51.650;17.780;2022-11-15T11:05:38;39.70;;;21.70;;
56788;SDS011;42657;51.650;17.780;2022-11-15T11:09:20;40.80;;;22.60;;
56788;SDS011;42657;51.650;17.780;2022-11-15T11:12:05;40.30;;;22.70;;
56788;SDS011;42657;51.650;17.780;2022-11-15T11:15:11;42.10;;;21.80;;
56788;SDS011;42657;51.650;17.780;2022-11-15T11:18:21;37.10;;;20.40;;
56788;SDS011;42657;51.650;17.780;2022-11-15T11:25:22;40.00;;;21.00;;
56788;SDS011;42657;51.650;17.780;2022-11-15T11:35:24;36.20;;;20.40;;
56788;SDS011;42657;51.650;17.780;2022-11-15T11:52:38;39.50;;;22.60;;
56788;SDS011;42657;51.650;17.780;2022-11-15T11:55:53;35.30;;;20.30;;
56788;SDS011;42657;51.650;17.780;2022-11-15T11:59:01;37.90;;;21.70;;
56788;SDS011;42657;51.650;17.780;2022-11-15T12:02:15;39.90;;;22.50;;
56788;SDS011;42657;51.650;17.780;2022-11-15T12:05:33;36.40;;;21.90;;
56788;SDS011;42657;51.650;17.780;2022-11-15T12:08:52;33.50;;;21.30;;
56788;SDS011;42657;51.650;17.780;2022-11-15T12:12:09;32.40;;;20.90;;
56788;SDS011;42657;51.650;17.780;2022-11-15T12:15:20;36.70;;;20.80;;
56788;SDS011;42657;51.650;17.780;2022-11-15T12:18:26;37.10;;;22.10;;
56788;SDS011;42657;51.650;17.780;2022-11-15T12:21:32;39.10;;;24.30;;
56788;SDS011;42657;51.650;17.780;2022-11-15T12:24:41;40.50;;;23.70;;
56788;SDS011;42657;51.650;17.780;2022-11-15T12:27:50;43.90;;;25.10;;
56788;SDS011;42657;51.650;17.780;2022-11-15T12:34:38;40.80;;;25.50;;
56788;SDS011;42657;51.650;17.780;2022-11-15T12:37:47;42.00;;;25.50;;
56788;SDS011;42657;51.650;17.780;2022-11-15T12:47:31;46.10;;;28.00;;
56788;SDS011;42657;51.650;17.780;2022-11-15T12:51:07;52.90;;;30.90;;
56788;SDS011;42657;51.650;17.780;2022-11-15T12:54:07;55.80;;;32.30;;
56788;SDS011;42657;51.650;17.780;2022-11-15T13:03:32;64.20;;;33.30;;
56788;SDS011;42657;51.650;17.780;2022-11-15T13:06:39;60.20;;;32.10;;
56788;SDS011;42657;51.650;17.780;2022-11-15T13:12:49;51.80;;;27.20;;
56788;SDS011;42657;51.650;17.780;2022-11-15T13:15:56;52.60;;;28.40;;
56788;SDS011;42657;51.650;17.780;2022-11-15T13:19:00;52.40;;;29.80;;
56788;SDS011;42657;51.650;17.780;2022-11-15T13:22:04;57.60;;;30.80;;
56788;SDS011;42657;51.650;17.780;2022-11-15T13:28:39;54.50;;;31.20;;
56788;SDS011;42657;51.650;17.780;2022-11-15T13:31:45;69.40;;;34.80;;
56788;SDS011;42657;51.650;17.780;2022-11-15T13:34:48;64.90;;;33.80;;
56788;SDS011;42657;51.650;17.780;2022-11-15T13:37:51;67.80;;;35.70;;
56788;SDS011;42657;51.650;17.780;2022-11-15T13:40:54;69.00;;;35.30;;
56788;SDS011;42657;51.650;17.780;2022-11-15T13:43:57;58.20;;;33.10;;
56788;SDS011;42657;51.650;17.780;2022-11-15T13:47:07;56.70;;;32.90;;
56788;SDS011;42657;51.650;17.780;2022-11-15T13:50:14;64.90;;;32.50;;
56788;SDS011;42657;51.650;17.780;2022-11-15T13:53:16;59.20;;;31.50;;
56788;SDS011;42657;51.650;17.780;2022-11-15T13:56:18;60.00;;;30.00;;
56788;SDS011;42657;51.650;17.780;2022-11-15T13:59:25;65.10;;;31.90;;
56788;SDS011;42657;51.650;17.780;2022-11-15T14:02:32;61.60;;;31.70;;
56788;SDS011;42657;51.650;17.780;2022-11-15T14:05:36;62.90;;;33.30;;
56788;SDS011;42657;51.650;17.780;2022-11-15T14:08:38;66.90;;;35.00;;
56788;SDS011;42657;51.650;17.780;2022-11-15T14:11:50;74.00;;;38.20;;
56788;SDS011;42657;51.650;17.780;2022-11-15T14:14:56;70.30;;;34.90;;
56788;SDS011;42657;51.650;17.780;2022-11-15T14:17:58;60.10;;;31.90;;
56788;SDS011;42657;51.650;17.780;2022-11-15T14:21:07;61.30;;;32.90;;
56788;SDS011;42657;51.650;17.780;2022-11-15T14:24:19;72.60;;;38.40;;
56788;SDS011;42657;51.650;17.780;2022-11-15T14:30:27;97.60;;;49.80;;
56788;SDS011;42657;51.650;17.780;2022-11-15T14:33:30;108.10;;;51.80;;
56788;SDS011;42657;51.650;17.780;2022-11-15T14:36:34;110.80;;;49.10;;
56788;SDS011;42657;51.650;17.780;2022-11-15T14:39:35;156.40;;;65.50;;
56788;SDS011;42657;51.650;17.780;2022-11-15T14:42:37;134.80;;;61.90;;
56788;SDS011;42657;51.650;17.780;2022-11-15T14:45:39;147.90;;;66.60;;
56788;SDS011;42657;51.650;17.780;2022-11-15T14:48:41;138.40;;;67.10;;
56788;SDS011;42657;51.650;17.780;2022-11-15T14:51:42;153.90;;;74.60;;
56788;SDS011;42657;51.650;17.780;2022-11-15T14:54:44;153.20;;;75.30;;
56788;SDS011;42657;51.650;17.780;2022-11-15T14:57:45;163.60;;;79.30;;
56788;SDS011;42657;51.650;17.780;2022-11-15T15:00:47;179.70;;;91.30;;
56788;SDS011;42657;51.650;17.780;2022-11-15T15:03:49;161.90;;;80.60;;
56788;SDS011;42657;51.650;17.780;2022-11-15T15:06:52;156.00;;;80.50;;
56788;SDS011;42657;51.650;17.780;2022-11-15T15:09:53;190.20;;;93.00;;
56788;SDS011;42657;51.650;17.780;2022-11-15T15:12:55;201.90;;;94.80;;
56788;SDS011;42657;51.650;17.780;2022-11-15T15:15:56;230.00;;;97.00;;
56788;SDS011;42657;51.650;17.780;2022-11-15T15:18:58;421.10;;;150.70;;
56788;SDS011;42657;51.650;17.780;2022-11-15T15:21:59;440.50;;;158.10;;
56788;SDS011;42657;51.650;17.780;2022-11-15T15:25:01;396.40;;;149.90;;
56788;SDS011;42657;51.650;17.780;2022-11-15T15:28:03;348.70;;;137.90;;
56788;SDS011;42657;51.650;17.780;2022-11-15T15:31:04;355.10;;;138.40;;
56788;SDS011;42657;51.650;17.780;2022-11-15T15:34:06;350.10;;;132.50;;
56788;SDS011;42657;51.650;17.780;2022-11-15T15:37:09;359.60;;;140.20;;
56788;SDS011;42657;51.650;17.780;2022-11-15T15:40:22;339.00;;;134.80;;
56788;SDS011;42657;51.650;17.780;2022-11-15T15:43:25;337.20;;;135.60;;
56788;SDS011;42657;51.650;17.780;2022-11-15T15:46:26;344.80;;;136.40;;
56788;SDS011;42657;51.650;17.780;2022-11-15T15:49:28;340.00;;;133.30;;
56788;SDS011;42657;51.650;17.780;2022-11-15T15:52:29;301.10;;;127.20;;
56788;SDS011;42657;51.650;17.780;2022-11-15T15:55:31;315.30;;;131.70;;
56788;SDS011;42657;51.650;17.780;2022-11-15T15:58:32;335.90;;;137.50;;
56788;SDS011;42657;51.650;17.780;2022-11-15T16:01:34;339.70;;;142.10;;
56788;SDS011;42657;51.650;17.780;2022-11-15T16:04:35;336.20;;;147.50;;
56788;SDS011;42657;51.650;17.780;2022-11-15T16:07:37;320.90;;;149.00;;
56788;SDS011;42657;51.650;17.780;2022-11-15T16:10:39;384.90;;;182.20;;
56788;SDS011;42657;51.650;17.780;2022-11-15T16:13:40;367.40;;;179.00;;
56788;SDS011;42657;51.650;17.780;2022-11-15T16:16:42;344.50;;;175.10;;
56788;SDS011;42657;51.650;17.780;2022-11-15T16:19:43;381.50;;;183.60;;
56788;SDS011;42657;51.650;17.780;2022-11-15T16:22:45;406.40;;;196.60;;
56788;SDS011;42657;51.650;17.780;2022-11-15T16:25:47;411.50;;;205.70;;
56788;SDS011;42657;51.650;17.780;2022-11-15T16:28:56;444.60;;;221.90;;
56788;SDS011;42657;51.650;17.780;2022-11-15T16:31:59;575.90;;;289.00;;
56788;SDS011;42657;51.650;17.780;2022-11-15T16:35:00;528.00;;;272.80;;
56788;SDS011;42657;51.650;17.780;2022-11-15T16:38:02;465.80;;;233.20;;
56788;SDS011;42657;51.650;17.780;2022-11-15T16:41:03;423.00;;;210.90;;
56788;SDS011;42657;51.650;17.780;2022-11-15T16:44:05;478.00;;;220.00;;
56788;SDS011;42657;51.650;17.780;2022-11-15T16:47:13;586.00;;;257.40;;
56788;SDS011;42657;51.650;17.780;2022-11-15T16:50:22;583.90;;;263.20;;
56788;SDS011;42657;51.650;17.780;2022-11-15T16:53:26;554.80;;;257.20;;
56788;SDS011;42657;51.650;17.780;2022-11-15T16:56:28;530.70;;;241.00;;
56788;SDS011;42657;51.650;17.780;2022-11-15T16:59:31;493.10;;;220.00;;
56788;SDS011;42657;51.650;17.780;2022-11-15T17:02:32;452.00;;;206.30;;
56788;SDS011;42657;51.650;17.780;2022-11-15T17:05:34;454.90;;;210.10;;
56788;SDS011;42657;51.650;17.780;2022-11-15T17:08:35;447.50;;;206.80;;
56788;SDS011;42657;51.650;17.780;2022-11-15T17:11:37;449.10;;;210.80;;
56788;SDS011;42657;51.650;17.780;2022-11-15T17:14:40;458.00;;;211.80;;
56788;SDS011;42657;51.650;17.780;2022-11-15T17:17:42;418.00;;;196.80;;
56788;SDS011;42657;51.650;17.780;2022-11-15T17:20:44;412.50;;;196.40;;
56788;SDS011;42657;51.650;17.780;2022-11-15T17:23:45;385.40;;;192.40;;
56788;SDS011;42657;51.650;17.780;2022-11-15T17:26:47;398.70;;;183.80;;
56788;SDS011;42657;51.650;17.780;2022-11-15T17:29:48;398.00;;;183.80;;
56788;SDS011;42657;51.650;17.780;2022-11-15T17:32:50;339.00;;;161.20;;
56788;SDS011;42657;51.650;17.780;2022-11-15T17:35:59;366.30;;;162.90;;
56788;SDS011;42657;51.650;17.780;2022-11-15T17:39:02;350.50;;;156.20;;
56788;SDS011;42657;51.650;17.780;2022-11-15T17:42:04;315.30;;;146.40;;
56788;SDS011;42657;51.650;17.780;2022-11-15T17:45:06;413.40;;;175.80;;
56788;SDS011;42657;51.650;17.780;2022-11-15T17:48:08;437.30;;;169.80;;
56788;SDS011;42657;51.650;17.780;2022-11-15T17:51:10;419.50;;;161.30;;
56788;SDS011;42657;51.650;17.780;2022-11-15T17:54:13;487.10;;;186.50;;
56788;SDS011;42657;51.650;17.780;2022-11-15T17:57:15;323.50;;;150.20;;
56788;SDS011;42657;51.650;17.780;2022-11-15T18:00:16;334.10;;;157.60;;
56788;SDS011;42657;51.650;17.780;2022-11-15T18:03:19;350.30;;;164.70;;
56788;SDS011;42657;51.650;17.780;2022-11-15T18:06:21;343.20;;;163.20;;
56788;SDS011;42657;51.650;17.780;2022-11-15T18:09:24;460.80;;;199.40;;
56788;SDS011;42657;51.650;17.780;2022-11-15T18:12:25;493.60;;;208.40;;
56788;SDS011;42657;51.650;17.780;2022-11-15T18:15:27;521.10;;;228.80;;
56788;SDS011;42657;51.650;17.780;2022-11-15T18:18:32;436.90;;;201.60;;
56788;SDS011;42657;51.650;17.780;2022-11-15T18:21:35;343.20;;;157.10;;
56788;SDS011;42657;51.650;17.780;2022-11-15T18:24:37;314.20;;;147.40;;
56788;SDS011;42657;51.650;17.780;2022-11-15T18:27:38;326.90;;;155.80;;
56788;SDS011;42657;51.650;17.780;2022-11-15T18:30:39;322.60;;;152.30;;
56788;SDS011;42657;51.650;17.780;2022-11-15T18:33:41;280.10;;;130.60;;
56788;SDS011;42657;51.650;17.780;2022-11-15T18:36:43;309.00;;;141.90;;
56788;SDS011;42657;51.650;17.780;2022-11-15T18:39:45;312.10;;;146.80;;
56788;SDS011;42657;51.650;17.780;2022-11-15T18:42:46;293.00;;;143.20;;
56788;SDS011;42657;51.650;17.780;2022-11-15T18:45:48;302.40;;;145.90;;
56788;SDS011;42657;51.650;17.780;2022-11-15T18:48:50;371.80;;;176.90;;
56788;SDS011;42657;51.650;17.780;2022-11-15T18:51:52;369.20;;;175.10;;
56788;SDS011;42657;51.650;17.780;2022-11-15T18:54:54;301.00;;;142.90;;
56788;SDS011;42657;51.650;17.780;2022-11-15T18:57:55;261.60;;;125.50;;
56788;SDS011;42657;51.650;17.780;2022-11-15T19:01:07;271.10;;;129.20;;
56788;SDS011;42657;51.650;17.780;2022-11-15T19:04:12;316.40;;;143.10;;
56788;SDS011;42657;51.650;17.780;2022-11-15T19:07:18;352.30;;;161.00;;
56788;SDS011;42657;51.650;17.780;2022-11-15T19:10:20;322.60;;;149.80;;
56788;SDS011;42657;51.650;17.780;2022-11-15T19:13:21;357.40;;;156.70;;
56788;SDS011;42657;51.650;17.780;2022-11-15T19:16:23;379.40;;;169.30;;
56788;SDS011;42657;51.650;17.780;2022-11-15T19:19:25;391.30;;;182.70;;